createdAt,value
2017-08-18T00:00:31.495Z,19.24
2017-08-18T00:01:32.137Z,19.24
2017-08-18T00:02:32.161Z,19.27
2017-08-18T00:03:40.606Z,19.17
2017-08-18T00:04:32.248Z,19.2
2017-08-18T00:05:31.976Z,19.25
2017-08-18T00:06:32.286Z,19.23
2017-08-18T00:07:32.406Z,19.24
2017-08-18T00:08:32.364Z,19.24
2017-08-18T00:09:32.419Z,19.35
2017-08-18T00:10:32.432Z,19.34
2017-08-18T00:11:32.911Z,19.34
2017-08-18T00:12:32.951Z,19.31
2017-08-18T00:13:33.031Z,19.3
2017-08-18T00:14:33.059Z,19.32
2017-08-18T00:15:32.742Z,19.3
2017-08-18T00:16:33.090Z,19.28
2017-08-18T00:17:32.829Z,19.2
2017-08-18T00:18:33.200Z,19.16
2017-08-18T00:19:33.233Z,19.2
2017-08-18T00:20:33.589Z,19.16
2017-08-18T00:21:33.610Z,19.2
2017-08-18T00:22:33.673Z,19.17
2017-08-18T00:23:33.709Z,19.1
2017-08-18T00:24:33.735Z,19.07
2017-08-18T00:25:33.791Z,19.06
2017-08-18T00:26:33.812Z,18.97
2017-08-18T00:27:33.846Z,19.07
2017-08-18T00:28:33.868Z,18.97
2017-08-18T00:29:33.920Z,18.89
2017-08-18T00:30:33.930Z,18.91
2017-08-18T00:31:34.291Z,18.9
2017-08-18T00:32:34.637Z,18.87
2017-08-18T00:33:34.975Z,18.9
2017-08-18T00:34:35.012Z,18.86
2017-08-18T00:35:34.401Z,19.05
2017-08-18T00:36:35.370Z,19
2017-08-18T00:37:35.710Z,19
2017-08-18T00:38:35.736Z,19.16
2017-08-18T00:39:35.773Z,19.23
2017-08-18T00:40:35.485Z,19.32
2017-08-18T00:41:35.534Z,19.43
2017-08-18T00:42:35.862Z,19.38
2017-08-18T00:43:36.295Z,19.52
2017-08-18T00:44:36.323Z,19.63
2017-08-18T00:45:36.047Z,19.67
2017-08-18T00:46:36.396Z,19.78
2017-08-18T00:47:36.430Z,19.78
2017-08-18T00:48:36.469Z,19.72
2017-08-18T00:49:36.507Z,19.71
2017-08-18T00:50:36.237Z,19.78
2017-08-18T00:51:36.575Z,19.74
2017-08-18T00:52:36.607Z,19.8
2017-08-18T00:53:36.648Z,19.82
2017-08-18T00:54:36.684Z,19.79
2017-08-18T00:55:36.393Z,19.7
2017-08-18T00:56:36.469Z,19.82
2017-08-18T00:57:36.483Z,19.72
2017-08-18T00:58:36.518Z,19.85
2017-08-18T00:59:36.534Z,19.78
2017-08-18T01:00:37.174Z,19.78
2017-08-18T01:01:37.257Z,19.74
2017-08-18T01:02:36.608Z,19.75
2017-08-18T01:03:37.591Z,19.72
2017-08-18T01:04:37.633Z,19.82
2017-08-18T01:05:37.673Z,19.82
2017-08-18T01:06:37.700Z,19.71
2017-08-18T01:07:37.725Z,19.75
2017-08-18T01:08:37.460Z,19.8
2017-08-18T01:09:38.091Z,19.74
2017-08-18T01:10:38.128Z,19.85
2017-08-18T01:11:37.857Z,19.85
2017-08-18T01:12:38.537Z,19.8
2017-08-18T01:13:38.582Z,19.83
2017-08-18T01:14:38.614Z,19.8
2017-08-18T01:15:38.667Z,19.87
2017-08-18T01:16:38.696Z,19.85
2017-08-18T01:17:39.030Z,19.82
2017-08-18T01:18:39.041Z,19.9
2017-08-18T01:19:38.757Z,19.83
2017-08-18T01:20:39.110Z,19.92
2017-08-18T01:21:39.157Z,19.92
2017-08-18T01:22:39.240Z,19.9
2017-08-18T01:23:39.232Z,19.87
2017-08-18T01:24:39.543Z,19.92
2017-08-18T01:25:39.337Z,20
2017-08-18T01:26:39.681Z,19.9
2017-08-18T01:27:39.383Z,20.01
2017-08-18T01:28:39.748Z,19.92
2017-08-18T01:29:39.795Z,19.89
2017-08-18T01:30:39.822Z,19.92
2017-08-18T01:31:39.908Z,19.89
2017-08-18T01:32:39.898Z,19.86
2017-08-18T01:33:39.928Z,19.9
2017-08-18T01:34:39.667Z,19.97
2017-08-18T01:35:40.328Z,19.89
2017-08-18T01:36:40.371Z,19.9
2017-08-18T01:37:40.417Z,19.86
2017-08-18T01:38:40.436Z,19.83
2017-08-18T01:39:40.478Z,19.74
2017-08-18T01:40:40.513Z,19.68
2017-08-18T01:41:40.546Z,19.64
2017-08-18T01:42:40.605Z,19.53
2017-08-18T01:43:40.615Z,19.53
2017-08-18T01:44:40.660Z,19.4
2017-08-18T01:45:40.058Z,19.38
2017-08-18T01:46:40.425Z,19.25
2017-08-18T01:47:41.071Z,19.16
2017-08-18T01:48:41.110Z,19.17
2017-08-18T01:49:40.514Z,19.15
2017-08-18T01:50:41.169Z,19.07
2017-08-18T01:51:41.512Z,18.97
2017-08-18T01:52:41.556Z,19.02
2017-08-18T01:53:41.259Z,19.02
2017-08-18T01:54:41.631Z,18.91
2017-08-18T01:55:41.642Z,18.87
2017-08-18T01:56:41.685Z,18.86
2017-08-18T01:57:41.721Z,18.9
2017-08-18T01:58:41.753Z,18.81
2017-08-18T01:59:41.792Z,18.86
2017-08-18T02:00:41.834Z,18.78
2017-08-18T02:01:41.913Z,18.79
2017-08-18T02:02:41.596Z,18.74
2017-08-18T02:03:42.047Z,18.76
2017-08-18T02:04:41.972Z,18.61
2017-08-18T02:05:42.028Z,18.69
2017-08-18T02:06:42.038Z,18.68
2017-08-18T02:07:41.767Z,18.68
2017-08-18T02:08:41.524Z,18.65
2017-08-18T02:09:41.849Z,18.72
2017-08-18T02:10:42.808Z,18.59
2017-08-18T02:11:42.835Z,18.66
2017-08-18T02:12:42.900Z,18.63
2017-08-18T02:13:42.576Z,18.74
2017-08-18T02:14:42.615Z,18.65
2017-08-18T02:15:43.293Z,18.66
2017-08-18T02:16:43.057Z,18.66
2017-08-18T02:17:43.057Z,18.69
2017-08-18T02:18:43.423Z,18.65
2017-08-18T02:19:43.434Z,18.81
2017-08-18T02:20:43.469Z,18.84
2017-08-18T02:21:43.512Z,18.87
2017-08-18T02:22:43.538Z,18.86
2017-08-18T02:23:43.602Z,18.87
2017-08-18T02:24:43.624Z,18.84
2017-08-18T02:25:43.645Z,18.84
2017-08-18T02:26:43.686Z,18.78
2017-08-18T02:27:44.011Z,18.74
2017-08-18T02:28:44.034Z,18.68
2017-08-18T02:29:44.063Z,18.61
2017-08-18T02:30:43.779Z,18.68
2017-08-18T02:31:44.137Z,18.66
2017-08-18T02:32:44.174Z,18.61
2017-08-18T02:33:44.212Z,18.66
2017-08-18T02:34:44.270Z,18.63
2017-08-18T02:35:44.282Z,18.57
2017-08-18T02:36:44.025Z,18.61
2017-08-18T02:37:44.391Z,18.56
2017-08-18T02:38:44.458Z,18.54
2017-08-18T02:39:44.480Z,18.53
2017-08-18T02:40:44.500Z,18.54
2017-08-18T02:41:44.530Z,18.45
2017-08-18T02:42:44.602Z,18.49
2017-08-18T02:43:44.275Z,18.44
2017-08-18T02:44:44.896Z,18.44
2017-08-18T02:45:44.721Z,18.47
2017-08-18T02:46:44.789Z,18.41
2017-08-18T02:47:44.742Z,18.49
2017-08-18T02:48:44.782Z,18.44
2017-08-18T02:49:44.813Z,18.41
2017-08-18T02:50:44.905Z,18.35
2017-08-18T02:51:44.595Z,18.39
2017-08-18T02:52:44.899Z,18.38
2017-08-18T02:53:45.261Z,18.38
2017-08-18T02:54:45.624Z,18.27
2017-08-18T02:55:45.342Z,18.26
2017-08-18T02:56:45.373Z,18.24
2017-08-18T02:57:45.713Z,18.29
2017-08-18T02:58:45.760Z,18.23
2017-08-18T02:59:45.822Z,18.2
2017-08-18T03:00:45.557Z,18.2
2017-08-18T03:01:45.930Z,18.2
2017-08-18T03:02:46.017Z,18.14
2017-08-18T03:03:46.137Z,18.13
2017-08-18T03:04:46.412Z,18.1
2017-08-18T03:05:46.465Z,18.11
2017-08-18T03:06:46.502Z,18.11
2017-08-18T03:07:46.230Z,18.1
2017-08-18T03:08:46.568Z,18.1
2017-08-18T03:09:46.558Z,18.03
2017-08-18T03:10:46.938Z,17.99
2017-08-18T03:11:46.960Z,18.1
2017-08-18T03:12:46.999Z,18.02
2017-08-18T03:13:47.038Z,18.03
2017-08-18T03:14:47.071Z,18.03
2017-08-18T03:15:47.123Z,18.08
2017-08-18T03:16:47.148Z,18.05
2017-08-18T03:17:47.170Z,18.06
2017-08-18T03:18:47.212Z,18.08
2017-08-18T03:19:47.247Z,18.1
2017-08-18T03:20:47.281Z,18.11
2017-08-18T03:21:46.988Z,18.08
2017-08-18T03:22:47.045Z,18.11
2017-08-18T03:23:47.680Z,18.08
2017-08-18T03:24:47.712Z,18.11
2017-08-18T03:25:47.410Z,18.03
2017-08-18T03:26:48.062Z,18.06
2017-08-18T03:27:48.118Z,18.02
2017-08-18T03:28:48.140Z,18.08
2017-08-18T03:29:48.165Z,18.05
2017-08-18T03:30:48.203Z,18.03
2017-08-18T03:31:48.256Z,18.01
2017-08-18T03:32:48.270Z,18.06
2017-08-18T03:33:48.305Z,17.99
2017-08-18T03:34:48.341Z,17.99
2017-08-18T03:35:48.396Z,17.9
2017-08-18T03:36:48.412Z,17.92
2017-08-18T03:37:48.448Z,17.83
2017-08-18T03:38:48.511Z,17.84
2017-08-18T03:39:48.844Z,17.87
2017-08-18T03:40:48.866Z,17.83
2017-08-18T03:41:48.903Z,17.84
2017-08-18T03:42:48.970Z,17.83
2017-08-18T03:43:48.664Z,17.77
2017-08-18T03:44:48.704Z,17.77
2017-08-18T03:45:49.044Z,17.86
2017-08-18T03:46:48.766Z,17.81
2017-08-18T03:47:49.118Z,17.79
2017-08-18T03:48:49.144Z,17.84
2017-08-18T03:49:49.175Z,17.74
2017-08-18T03:50:48.909Z,17.66
2017-08-18T03:51:49.247Z,17.73
2017-08-18T03:52:49.311Z,17.66
2017-08-18T03:53:49.325Z,17.77
2017-08-18T03:54:49.047Z,17.6
2017-08-18T03:55:49.662Z,17.57
2017-08-18T03:56:49.711Z,17.57
2017-08-18T03:57:49.725Z,17.58
2017-08-18T03:58:49.777Z,17.58
2017-08-18T03:59:49.825Z,17.62
2017-08-18T04:00:50.076Z,17.68
2017-08-18T04:01:49.811Z,17.57
2017-08-18T04:02:50.251Z,17.65
2017-08-18T04:03:50.260Z,17.57
2017-08-18T04:04:50.297Z,17.71
2017-08-18T04:05:50.626Z,17.73
2017-08-18T04:06:50.643Z,17.69
2017-08-18T04:07:50.679Z,17.6
2017-08-18T04:08:50.719Z,17.69
2017-08-18T04:09:50.747Z,17.63
2017-08-18T04:10:50.784Z,17.6
2017-08-18T04:11:51.154Z,17.68
2017-08-18T04:12:51.181Z,17.66
2017-08-18T04:13:51.216Z,17.52
2017-08-18T04:14:51.252Z,17.66
2017-08-18T04:15:51.288Z,17.65
2017-08-18T04:16:51.327Z,17.83
2017-08-18T04:17:51.354Z,17.84
2017-08-18T04:18:51.095Z,17.71
2017-08-18T04:19:51.147Z,17.71
2017-08-18T04:20:51.466Z,17.71
2017-08-18T04:21:51.506Z,17.68
2017-08-18T04:22:51.534Z,17.69
2017-08-18T04:23:51.243Z,17.73
2017-08-18T04:24:51.305Z,17.71
2017-08-18T04:25:51.646Z,17.73
2017-08-18T04:26:52.005Z,17.71
2017-08-18T04:27:51.714Z,17.74
2017-08-18T04:28:52.368Z,17.79
2017-08-18T04:29:52.093Z,17.8
2017-08-18T04:30:52.444Z,17.74
2017-08-18T04:31:52.480Z,17.65
2017-08-18T04:32:52.486Z,17.69
2017-08-18T04:33:52.238Z,17.79
2017-08-18T04:34:53.213Z,17.86
2017-08-18T04:35:52.912Z,17.87
2017-08-18T04:36:53.256Z,17.81
2017-08-18T04:37:53.290Z,17.94
2017-08-18T04:38:53.330Z,17.96
2017-08-18T04:39:53.363Z,17.98
2017-08-18T04:40:53.717Z,17.99
2017-08-18T04:41:53.448Z,18.02
2017-08-18T04:42:53.774Z,17.99
2017-08-18T04:43:53.830Z,18.01
2017-08-18T04:44:53.876Z,18.03
2017-08-18T04:45:53.948Z,18.05
2017-08-18T04:46:53.652Z,18.05
2017-08-18T04:47:54.009Z,18.13
2017-08-18T04:48:54.042Z,18.17
2017-08-18T04:49:54.075Z,18.14
2017-08-18T04:50:53.838Z,18.21
2017-08-18T04:51:53.841Z,18.26
2017-08-18T04:52:54.222Z,18.34
2017-08-18T04:53:54.544Z,18.42
2017-08-18T04:54:54.572Z,18.34
2017-08-18T04:55:54.612Z,18.42
2017-08-18T04:56:54.642Z,18.49
2017-08-18T04:57:54.671Z,18.5
2017-08-18T04:58:54.707Z,18.49
2017-08-18T04:59:54.747Z,18.59
2017-08-18T05:00:54.777Z,18.6
2017-08-18T05:01:54.906Z,18.6
2017-08-18T05:02:54.857Z,18.63
2017-08-18T05:03:54.647Z,18.65
2017-08-18T05:04:54.635Z,18.68
2017-08-18T05:05:54.652Z,18.68
2017-08-18T05:06:55.303Z,18.71
2017-08-18T05:07:55.376Z,18.72
2017-08-18T05:08:55.366Z,18.87
2017-08-18T05:09:55.404Z,18.9
2017-08-18T05:10:55.446Z,18.81
2017-08-18T05:11:55.171Z,18.89
2017-08-18T05:12:55.510Z,18.93
2017-08-18T05:13:55.549Z,19
2017-08-18T05:14:55.251Z,19.12
2017-08-18T05:15:55.635Z,19.12
2017-08-18T05:16:55.330Z,19.25
2017-08-18T05:17:55.697Z,19.16
2017-08-18T05:18:55.746Z,19.31
2017-08-18T05:19:55.432Z,19.34
2017-08-18T05:20:55.761Z,19.43
2017-08-18T05:21:56.441Z,19.5
2017-08-18T05:22:56.474Z,19.53
2017-08-18T05:23:56.818Z,19.56
2017-08-18T05:24:56.870Z,19.64
2017-08-18T05:25:56.905Z,19.72
2017-08-18T05:26:56.926Z,19.78
2017-08-18T05:27:56.962Z,19.78
2017-08-18T05:28:56.705Z,19.72
2017-08-18T05:29:57.044Z,19.82
2017-08-18T05:30:57.066Z,19.85
2017-08-18T05:31:57.118Z,19.89
2017-08-18T05:32:57.139Z,19.93
2017-08-18T05:33:56.879Z,19.97
2017-08-18T05:34:57.237Z,19.93
2017-08-18T05:35:57.883Z,20.07
2017-08-18T05:36:57.613Z,20.08
2017-08-18T05:37:57.958Z,20.12
2017-08-18T05:38:57.399Z,20.26
2017-08-18T05:39:58.046Z,20.34
2017-08-18T05:40:58.085Z,20.29
2017-08-18T05:41:58.145Z,20.37
2017-08-18T05:42:57.869Z,20.46
2017-08-18T05:43:58.508Z,20.49
2017-08-18T05:44:58.541Z,20.53
2017-08-18T05:45:58.853Z,20.6
2017-08-18T05:46:58.895Z,20.56
2017-08-18T05:47:58.944Z,20.66
2017-08-18T05:48:58.655Z,20.6
2017-08-18T05:49:59.111Z,20.67
2017-08-18T05:50:58.807Z,20.76
2017-08-18T05:51:58.834Z,20.71
2017-08-18T05:52:59.207Z,20.83
2017-08-18T05:53:59.241Z,20.79
2017-08-18T05:54:59.281Z,20.9
2017-08-18T05:55:59.673Z,20.9
2017-08-18T05:56:59.410Z,21.03
2017-08-18T05:57:59.133Z,21.22
2017-08-18T05:58:59.746Z,21.31
2017-08-18T05:59:59.802Z,21.46
2017-08-18T06:00:59.848Z,21.56
2017-08-18T06:02:00.790Z,21.66
2017-08-18T06:02:59.668Z,21.73
2017-08-18T06:03:59.615Z,21.93
2017-08-18T06:04:59.930Z,21.94
2017-08-18T06:06:00.678Z,22.02
2017-08-18T06:07:00.400Z,22.02
2017-08-18T06:08:00.758Z,22.14
2017-08-18T06:09:00.814Z,22.23
2017-08-18T06:10:00.833Z,22.2
2017-08-18T06:11:00.865Z,22.3
2017-08-18T06:12:00.576Z,22.44
2017-08-18T06:13:00.610Z,22.46
2017-08-18T06:14:01.330Z,22.48
2017-08-18T06:15:01.026Z,22.6
2017-08-18T06:16:01.070Z,22.85
2017-08-18T06:17:01.090Z,23.28
2017-08-18T06:18:01.156Z,23.84
2017-08-18T06:19:00.856Z,24.49
2017-08-18T06:20:01.261Z,25.14
2017-08-18T06:21:01.569Z,25.86
2017-08-18T06:22:01.614Z,26.5
2017-08-18T06:23:02.292Z,26.99
2017-08-18T06:24:02.268Z,27.45
2017-08-18T06:25:02.366Z,28.23
2017-08-18T06:26:02.353Z,28.7
2017-08-18T06:27:02.386Z,29.13
2017-08-18T06:28:02.112Z,29.54
2017-08-18T06:29:02.839Z,29.77
2017-08-18T06:30:02.821Z,30.13
2017-08-18T06:31:03.135Z,30.57
2017-08-18T06:32:03.213Z,31.1
2017-08-18T06:33:02.918Z,31.44
2017-08-18T06:34:03.346Z,31.78
2017-08-18T06:35:03.334Z,32.06
2017-08-18T06:36:03.025Z,32.3
2017-08-18T06:37:03.689Z,32.67
2017-08-18T06:38:03.822Z,32.98
2017-08-18T06:39:03.500Z,33.26
2017-08-18T06:40:03.191Z,33.59
2017-08-18T06:41:03.914Z,33.73
2017-08-18T06:42:04.034Z,34.17
2017-08-18T06:43:04.052Z,34.41
2017-08-18T06:44:03.974Z,34.69
2017-08-18T06:45:04.584Z,34.94
2017-08-18T06:46:04.065Z,35.34
2017-08-18T06:47:04.110Z,35.76
2017-08-18T06:48:04.136Z,36.28
2017-08-18T06:49:04.191Z,36.67
2017-08-18T06:50:04.593Z,37.09
2017-08-18T06:51:04.303Z,37.23
2017-08-18T06:52:03.992Z,37.54
2017-08-18T06:53:04.026Z,37.8
2017-08-18T06:54:04.466Z,37.94
2017-08-18T06:55:04.525Z,37.9
2017-08-18T06:56:04.487Z,37.86
2017-08-18T06:57:04.224Z,37.74
2017-08-18T06:58:04.244Z,37.68
2017-08-18T06:59:04.615Z,37.05
2017-08-18T07:00:04.141Z,36.59
2017-08-18T07:01:05.156Z,36.22
2017-08-18T07:02:05.172Z,35.86
2017-08-18T07:03:05.203Z,35.49
2017-08-18T07:04:05.258Z,34.87
2017-08-18T07:05:05.300Z,34.34
2017-08-18T07:06:05.366Z,33.8
2017-08-18T07:07:05.107Z,33.24
2017-08-18T07:08:05.242Z,32.86
2017-08-18T07:09:05.648Z,32.52
2017-08-18T07:10:05.386Z,32.38
2017-08-18T07:11:05.150Z,32.25
2017-08-18T07:12:06.160Z,32.17
2017-08-18T07:13:06.288Z,31.97
2017-08-18T07:14:06.294Z,31.94
2017-08-18T07:15:05.940Z,31.94
2017-08-18T07:16:06.080Z,32.31
2017-08-18T07:17:06.127Z,32.62
2017-08-18T07:18:06.185Z,32.99
2017-08-18T07:19:06.512Z,33.03
2017-08-18T07:20:06.581Z,33.28
2017-08-18T07:21:06.533Z,33.31
2017-08-18T07:22:06.266Z,33.24
2017-08-18T07:23:06.640Z,33.11
2017-08-18T07:24:06.661Z,32.94
2017-08-18T07:25:06.755Z,32.38
2017-08-18T07:26:06.737Z,31.91
2017-08-18T07:27:06.816Z,31.49
2017-08-18T07:28:06.827Z,31.04
2017-08-18T07:29:06.862Z,30.82
2017-08-18T07:30:06.699Z,30.64
2017-08-18T07:31:07.296Z,30.73
2017-08-18T07:32:07.403Z,31.03
2017-08-18T07:33:07.172Z,31.71
2017-08-18T07:34:07.474Z,32.16
2017-08-18T07:35:07.523Z,32.62
2017-08-18T07:36:07.571Z,33.34
2017-08-18T07:37:07.280Z,33.81
2017-08-18T07:38:07.680Z,34.21
2017-08-18T07:39:07.723Z,34.36
2017-08-18T07:40:07.425Z,34.14
2017-08-18T07:41:07.774Z,33.78
2017-08-18T07:42:08.137Z,33.34
2017-08-18T07:43:07.914Z,33.01
2017-08-18T07:44:08.573Z,32.83
2017-08-18T07:45:09.004Z,32.69
2017-08-18T07:46:09.087Z,32.35
2017-08-18T07:47:08.473Z,31.8
2017-08-18T07:48:08.799Z,31.58
2017-08-18T07:49:09.324Z,31.28
2017-08-18T07:50:09.758Z,31.23
2017-08-18T07:51:09.775Z,31.23
2017-08-18T07:52:10.427Z,31.16
2017-08-18T07:53:10.466Z,31.1
2017-08-18T07:54:10.208Z,30.88
2017-08-18T07:55:10.565Z,30.75
2017-08-18T07:56:10.664Z,30.75
2017-08-18T07:57:11.021Z,30.78
2017-08-18T07:58:11.080Z,30.82
2017-08-18T07:59:11.395Z,30.84
2017-08-18T08:00:11.761Z,30.79
2017-08-18T08:01:11.805Z,30.93
2017-08-18T08:02:11.807Z,31.07
2017-08-18T08:03:11.547Z,31.13
2017-08-18T08:04:11.639Z,31.33
2017-08-18T08:05:11.693Z,31.37
2017-08-18T08:06:12.365Z,31.59
2017-08-18T08:07:12.423Z,31.59
2017-08-18T08:08:12.149Z,31.67
2017-08-18T08:09:12.815Z,31.33
2017-08-18T08:10:12.870Z,31.1
2017-08-18T08:11:12.890Z,30.97
2017-08-18T08:12:12.649Z,30.86
2017-08-18T08:13:12.983Z,30.66
2017-08-18T08:14:12.708Z,30.47
2017-08-18T08:15:13.060Z,30.48
2017-08-18T08:16:13.091Z,30.34
2017-08-18T08:17:13.141Z,30.1
2017-08-18T08:18:12.872Z,29.88
2017-08-18T08:19:13.577Z,29.82
2017-08-18T08:20:13.295Z,29.57
2017-08-18T08:21:13.335Z,29.38
2017-08-18T08:22:13.417Z,29.21
2017-08-18T08:23:13.438Z,29.24
2017-08-18T08:24:13.545Z,29.45
2017-08-18T08:25:13.620Z,29.57
2017-08-18T08:26:13.683Z,29.76
2017-08-18T08:27:13.702Z,29.88
2017-08-18T08:28:13.771Z,30.14
2017-08-18T08:29:14.728Z,30.26
2017-08-18T08:30:14.777Z,30.31
2017-08-18T08:31:14.886Z,30.4
2017-08-18T08:32:14.545Z,30.6
2017-08-18T08:33:14.887Z,30.78
2017-08-18T08:34:14.935Z,31.08
2017-08-18T08:35:15.670Z,31.4
2017-08-18T08:36:15.694Z,31.8
2017-08-18T08:37:15.410Z,32.16
2017-08-18T08:38:15.501Z,32.53
2017-08-18T08:39:15.894Z,32.9
2017-08-18T08:40:15.626Z,32.9
2017-08-18T08:41:15.983Z,32.9
2017-08-18T08:42:16.007Z,33.13
2017-08-18T08:43:16.355Z,33.92
2017-08-18T08:44:16.106Z,34.64
2017-08-18T08:45:16.104Z,35.43
2017-08-18T08:46:15.908Z,36.14
2017-08-18T08:47:16.513Z,36.78
2017-08-18T08:48:16.224Z,37.61
2017-08-18T08:49:15.995Z,38.17
2017-08-18T08:50:16.713Z,38.89
2017-08-18T08:51:16.751Z,39.3
2017-08-18T08:52:16.767Z,39.2
2017-08-18T08:53:17.076Z,38.99
2017-08-18T08:54:16.543Z,38.83
2017-08-18T08:55:17.206Z,38.7
2017-08-18T08:56:16.955Z,38.83
2017-08-18T08:57:16.990Z,38.96
2017-08-18T08:58:17.008Z,39.18
2017-08-18T08:59:17.411Z,38.92
2017-08-18T09:00:17.123Z,38.36
2017-08-18T09:01:17.508Z,38.06
2017-08-18T09:02:17.826Z,37.23
2017-08-18T09:03:17.275Z,36.68
2017-08-18T09:04:17.589Z,36.3
2017-08-18T09:05:17.334Z,36.21
2017-08-18T09:06:17.699Z,36.36
2017-08-18T09:07:18.076Z,36.84
2017-08-18T09:08:18.112Z,37.37
2017-08-18T09:09:18.163Z,37.61
2017-08-18T09:10:18.031Z,37.54
2017-08-18T09:11:18.194Z,37.46
2017-08-18T09:12:18.491Z,37.79
2017-08-18T09:13:18.849Z,37.9
2017-08-18T09:14:18.884Z,38.12
2017-08-18T09:15:18.929Z,38.52
2017-08-18T09:16:18.690Z,38.93
2017-08-18T09:17:18.702Z,39.45
2017-08-18T09:18:18.763Z,39.93
2017-08-18T09:19:19.109Z,40.22
2017-08-18T09:20:18.886Z,40.63
2017-08-18T09:21:19.244Z,40.67
2017-08-18T09:22:19.606Z,40.38
2017-08-18T09:23:19.997Z,40.32
2017-08-18T09:24:19.692Z,40.32
2017-08-18T09:25:20.593Z,40.15
2017-08-18T09:26:20.660Z,39.99
2017-08-18T09:27:21.013Z,39.6
2017-08-18T09:28:21.423Z,39.75
2017-08-18T09:29:21.408Z,39.88
2017-08-18T09:30:21.559Z,40.02
2017-08-18T09:31:21.938Z,39.91
2017-08-18T09:32:22.265Z,39.79
2017-08-18T09:33:22.020Z,40.31
2017-08-18T09:34:22.366Z,40.72
2017-08-18T09:35:22.367Z,40.89
2017-08-18T09:36:22.146Z,40.6
2017-08-18T09:37:22.499Z,40.47
2017-08-18T09:38:22.605Z,40.74
2017-08-18T09:39:22.984Z,41.25
2017-08-18T09:40:23.051Z,41.18
2017-08-18T09:41:22.737Z,40.74
2017-08-18T09:42:22.870Z,40.47
2017-08-18T09:43:23.582Z,40.72
2017-08-18T09:44:23.273Z,40.98
2017-08-18T09:45:23.664Z,40.15
2017-08-18T09:46:23.693Z,39.45
2017-08-18T09:47:23.757Z,38.83
2017-08-18T09:48:24.084Z,37.91
2017-08-18T09:49:24.182Z,36.56
2017-08-18T09:50:24.207Z,35.52
2017-08-18T09:51:23.900Z,34.75
2017-08-18T09:52:24.621Z,34.22
2017-08-18T09:53:24.720Z,34.11
2017-08-18T09:54:24.697Z,34.12
2017-08-18T09:55:24.475Z,33.93
2017-08-18T09:56:24.800Z,33.68
2017-08-18T09:57:24.828Z,33.37
2017-08-18T09:58:24.935Z,33.08
2017-08-18T09:59:24.915Z,32.89
2017-08-18T10:00:24.983Z,32.9
2017-08-18T10:01:25.014Z,33.23
2017-08-18T10:02:25.094Z,33.41
2017-08-18T10:03:25.499Z,33.58
2017-08-18T10:04:25.215Z,33.74
2017-08-18T10:05:25.867Z,33.63
2017-08-18T10:06:25.912Z,33.61
2017-08-18T10:07:25.960Z,33.84
2017-08-18T10:08:25.998Z,34.58
2017-08-18T10:09:25.730Z,35.46
2017-08-18T10:10:25.802Z,36.34
2017-08-18T10:11:25.823Z,37.18
2017-08-18T10:12:25.867Z,38.08
2017-08-18T10:13:26.546Z,38.43
2017-08-18T10:14:26.232Z,38.78
2017-08-18T10:15:26.645Z,38.92
2017-08-18T10:16:26.373Z,38.7
2017-08-18T10:17:26.430Z,38.56
2017-08-18T10:18:26.543Z,38.55
2017-08-18T10:19:26.219Z,38.55
2017-08-18T10:20:27.225Z,38.8
2017-08-18T10:21:26.962Z,39.22
2017-08-18T10:22:27.595Z,39.64
2017-08-18T10:23:27.634Z,39.88
2017-08-18T10:24:27.673Z,39.57
2017-08-18T10:25:27.713Z,39.3
2017-08-18T10:26:27.475Z,39.01
2017-08-18T10:27:27.796Z,38.8
2017-08-18T10:28:27.574Z,38.02
2017-08-18T10:29:27.607Z,37.34
2017-08-18T10:30:28.325Z,36.83
2017-08-18T10:31:28.023Z,36.21
2017-08-18T10:32:28.078Z,35.71
2017-08-18T10:33:28.768Z,35.26
2017-08-18T10:34:28.535Z,34.63
2017-08-18T10:35:28.559Z,33.83
2017-08-18T10:36:28.913Z,33.18
2017-08-18T10:37:28.954Z,32.37
2017-08-18T10:38:29.016Z,31.65
2017-08-18T10:39:29.374Z,31.01
2017-08-18T10:40:29.102Z,30.99
2017-08-18T10:41:29.464Z,31
2017-08-18T10:42:29.500Z,31.18
2017-08-18T10:43:29.556Z,31.4
2017-08-18T10:44:29.933Z,31.26
2017-08-18T10:45:29.955Z,31.21
2017-08-18T10:46:29.999Z,30.97
2017-08-18T10:47:30.351Z,30.99
2017-08-18T10:48:30.647Z,31
2017-08-18T10:49:30.512Z,31.04
2017-08-18T10:50:30.173Z,31.06
2017-08-18T10:51:30.548Z,30.93
2017-08-18T10:52:30.320Z,31.03
2017-08-18T10:53:30.626Z,31.23
2017-08-18T10:54:30.362Z,31.33
2017-08-18T10:55:31.016Z,31.53
2017-08-18T10:56:31.702Z,31.68
2017-08-18T10:57:31.748Z,31.72
2017-08-18T10:58:31.786Z,31.88
2017-08-18T10:59:31.825Z,31.97
2017-08-18T11:00:31.871Z,32.13
2017-08-18T11:01:31.392Z,32.27
2017-08-18T11:02:32.407Z,32.15
2017-08-18T11:03:32.773Z,32.25
2017-08-18T11:04:32.484Z,32.23
2017-08-18T11:05:32.502Z,32.39
2017-08-18T11:06:31.917Z,32.5
2017-08-18T11:07:32.599Z,32.67
2017-08-18T11:08:32.652Z,32.79
2017-08-18T11:09:33.005Z,32.81
2017-08-18T11:10:33.042Z,32.84
2017-08-18T11:11:32.766Z,32.74
2017-08-18T11:12:33.115Z,32.57
2017-08-18T11:13:32.559Z,32.13
2017-08-18T11:14:33.240Z,31.68
2017-08-18T11:15:33.327Z,31.45
2017-08-18T11:16:32.989Z,31.18
2017-08-18T11:17:33.330Z,30.78
2017-08-18T11:18:33.708Z,30.34
2017-08-18T11:19:33.770Z,30.04
2017-08-18T11:20:33.784Z,29.82
2017-08-18T11:21:33.837Z,29.58
2017-08-18T11:22:33.840Z,29.36
2017-08-18T11:23:34.210Z,29.2
2017-08-18T11:24:34.251Z,29.01
2017-08-18T11:25:34.296Z,28.79
2017-08-18T11:26:34.621Z,28.68
2017-08-18T11:27:34.666Z,28.57
2017-08-18T11:28:34.384Z,28.64
2017-08-18T11:29:34.750Z,28.67
2017-08-18T11:30:34.793Z,28.57
2017-08-18T11:31:34.821Z,28.58
2017-08-18T11:32:34.896Z,28.54
2017-08-18T11:33:35.005Z,28.57
2017-08-18T11:34:34.968Z,28.55
2017-08-18T11:35:34.984Z,28.51
2017-08-18T11:36:35.069Z,28.42
2017-08-18T11:37:34.784Z,28.42
2017-08-18T11:38:35.589Z,28.39
2017-08-18T11:39:35.507Z,28.27
2017-08-18T11:40:35.852Z,28.21
2017-08-18T11:41:35.912Z,28.17
2017-08-18T11:42:35.640Z,28.08
2017-08-18T11:43:35.971Z,27.91
2017-08-18T11:44:35.702Z,27.94
2017-08-18T11:45:36.036Z,27.94
2017-08-18T11:46:36.708Z,27.9
2017-08-18T11:47:36.749Z,27.84
2017-08-18T11:48:36.460Z,27.71
2017-08-18T11:49:36.784Z,27.61
2017-08-18T11:50:37.157Z,27.59
2017-08-18T11:51:37.206Z,27.52
2017-08-18T11:52:36.906Z,27.53
2017-08-18T11:53:37.298Z,27.46
2017-08-18T11:54:37.000Z,27.45
2017-08-18T11:55:37.358Z,27.43
2017-08-18T11:56:37.417Z,27.41
2017-08-18T11:57:37.138Z,27.42
2017-08-18T11:58:38.114Z,27.31
2017-08-18T11:59:38.160Z,27.36
2017-08-18T12:00:37.886Z,27.37
2017-08-18T12:01:39.593Z,27.34
2017-08-18T12:02:38.713Z,27.46
2017-08-18T12:03:39.067Z,27.49
2017-08-18T12:04:39.095Z,27.57
2017-08-18T12:05:38.846Z,27.66
2017-08-18T12:06:39.525Z,27.79
2017-08-18T12:07:39.576Z,27.93
2017-08-18T12:08:39.585Z,27.96
2017-08-18T12:09:39.637Z,28.12
2017-08-18T12:10:39.676Z,28.17
2017-08-18T12:11:39.970Z,28.36
2017-08-18T12:12:39.856Z,28.42
2017-08-18T12:13:40.228Z,28.39
2017-08-18T12:14:39.948Z,28.58
2017-08-18T12:15:40.334Z,28.42
2017-08-18T12:16:40.028Z,28.31
2017-08-18T12:17:40.658Z,28.36
2017-08-18T12:18:40.419Z,28.21
2017-08-18T12:19:41.170Z,28.21
2017-08-18T12:20:41.177Z,28.2
2017-08-18T12:21:41.568Z,28.16
2017-08-18T12:22:41.585Z,28.23
2017-08-18T12:23:41.321Z,28.23
2017-08-18T12:24:41.971Z,28.09
2017-08-18T12:25:42.365Z,28.02
2017-08-18T12:26:42.142Z,27.8
2017-08-18T12:27:43.109Z,27.72
2017-08-18T12:28:42.487Z,27.68
2017-08-18T12:29:43.068Z,27.48
2017-08-18T12:30:42.350Z,27.48
2017-08-18T12:31:42.295Z,27.36
2017-08-18T12:32:42.663Z,27.28
2017-08-18T12:33:43.015Z,27.27
2017-08-18T12:34:43.093Z,27.27
2017-08-18T12:35:42.818Z,27.24
2017-08-18T12:36:43.142Z,27.36
2017-08-18T12:37:42.904Z,27.26
2017-08-18T12:38:42.903Z,27.11
2017-08-18T12:39:43.509Z,27.11
2017-08-18T12:40:43.720Z,27.09
2017-08-18T12:41:43.373Z,27.12
2017-08-18T12:42:43.406Z,27.15
2017-08-18T12:43:43.417Z,26.97
2017-08-18T12:44:43.441Z,27.09
2017-08-18T12:45:43.683Z,27.13
2017-08-18T12:46:43.203Z,27.08
2017-08-18T12:47:44.214Z,27.16
2017-08-18T12:48:43.628Z,27.27
2017-08-18T12:49:44.304Z,27.34
2017-08-18T12:50:44.007Z,27.43
2017-08-18T12:51:44.130Z,27.51
2017-08-18T12:52:44.835Z,27.46
2017-08-18T12:53:45.116Z,27.57
2017-08-18T12:54:44.247Z,27.68
2017-08-18T12:55:45.247Z,27.76
2017-08-18T12:56:44.973Z,27.76